WetterOnline ( http://www.wetteronline.de )

Wetter aktuell Waibstadt

Aktuelles Wetter: Waibstadt (237m)

6-stündlich | Neueste Meldungen
Ortszeit Temperatur Wetter
Fr, 20.07. 8:00 17.9° C wolkig
Fr, 20.07. 2:00 16.9° C wolkenlos
Do, 19.07. 20:00 27.3° C fast wolkenlos
Do, 19.07. 14:00 27.4° C wolkenlos
Do, 19.07. 8:00 17.5° C fast wolkenlos
Do, 19.07. 2:00 15.2° C wolkig
Mi, 18.07. 20:00 25.5° C wolkenlos
Mi, 18.07. 14:00 25.9° C leicht bewölkt
Ortszeit Temperatur Wetter
Fr, 20.07. 10:30 24.5° C leicht bewölkt
Fr, 20.07. 10:20 24.5° C leicht bewölkt
Fr, 20.07. 10:10 24.3° C leicht bewölkt
Fr, 20.07. 10:00 23.8° C wolkenlos
Fr, 20.07. 9:50 23.8° C wolkenlos
Fr, 20.07. 9:40 22.6° C wolkenlos
Fr, 20.07. 9:30 22.3° C wolkenlos
Fr, 20.07. 9:00 20.8° C wolkenlos
Fr, 20.07. 8:30 17.4° C leicht bewölkt
Fr, 20.07. 8:00 17.9° C wolkig
Fr, 20.07. 7:30 16.8° C bedeckt
Ortszeit Relative Feuchte Sichtweite
Fr, 20.07. 8:00 63% 30 km
Fr, 20.07. 2:00 73% 24 km
Do, 19.07. 20:00 35% 45 km
Do, 19.07. 14:00 33% 35 km
Do, 19.07. 8:00 68% 30 km
Do, 19.07. 2:00 78% 30 km
Mi, 18.07. 20:00 35% 50 km
Mi, 18.07. 14:00 39% 45 km
Ortszeit Relative Feuchte Sichtweite
Fr, 20.07. 10:30 41% 40 km
Fr, 20.07. 10:20 41% -
Fr, 20.07. 10:10 42% -
Fr, 20.07. 10:00 43% 40 km
Fr, 20.07. 9:50 43% -
Fr, 20.07. 9:40 45% -
Fr, 20.07. 9:30 48% 40 km
Fr, 20.07. 9:00 53% 30 km
Fr, 20.07. 8:30 66% 30 km
Fr, 20.07. 8:00 63% 30 km
Fr, 20.07. 7:30 73% 23 km
Ortszeit Niederschlagsmenge Niederschlagsart
Fr, 20.07. 8:00 0.0 l/m2 in 12 Std. -
Fr, 20.07. 2:00 0.0 l/m2 in 6 Std. -
Do, 19.07. 20:00 0.1 l/m2 in 12 Std. -
Do, 19.07. 14:00 0.1 l/m2 in 6 Std. Regen
Do, 19.07. 8:00 0.0 l/m2 in 12 Std. -
Do, 19.07. 2:00 0.0 l/m2 in 6 Std. -
Mi, 18.07. 20:00 0.0 l/m2 in 12 Std. -
Mi, 18.07. 14:00 0.0 l/m2 in 6 Std. -
Ortszeit Niederschlagsmenge Niederschlagsart
Fr, 20.07. 10:30 0.0 l/m2 in 1 Std. -
Fr, 20.07. 10:20 keine Meldung -
Fr, 20.07. 10:10 keine Meldung -
Fr, 20.07. 10:00 0.0 l/m2 in 1 Std. -
Fr, 20.07. 9:50 keine Meldung -
Fr, 20.07. 9:40 keine Meldung -
Fr, 20.07. 9:30 0.0 l/m2 in 1 Std. -
Fr, 20.07. 9:00 0.0 l/m2 in 1 Std. -
Fr, 20.07. 8:30 0.0 l/m2 in 1 Std. -
Fr, 20.07. 8:00 0.0 l/m2 in 1 Std. -
Fr, 20.07. 7:30 0.0 l/m2 in 1 Std. -
Ortszeit Stärke Spitze Richtung
km/h Bft. km/h Grad Sektor
Fr, 20.07. 8:00 7 2 11 70° O
Fr, 20.07. 2:00 2 1 15 20° N
Do, 19.07. 20:00 4 1 22 320° NW
Do, 19.07. 14:00 6 1 22 150° SO
Do, 19.07. 8:00 4 1 7 80° O
Do, 19.07. 2:00 4 1 22 60° NO
Mi, 18.07. 20:00 18 3 25 360° N
Mi, 18.07. 14:00 7 2 25 350° N
Ortszeit Stärke Spitze Richtung
km/h Bft. km/h Grad Sektor
Fr, 20.07. 10:30 7 2 14 30° NO
Fr, 20.07. 10:20 7 2 - 30° NO
Fr, 20.07. 10:10 7 2 - 40° NO
Fr, 20.07. 10:00 7 2 15 40° NO
Fr, 20.07. 9:50 7 2 - 40° NO
Fr, 20.07. 9:40 9 2 - 50° NO
Fr, 20.07. 9:30 7 2 14 70° O
Fr, 20.07. 9:00 9 2 15 70° O
Fr, 20.07. 8:30 7 2 11 60° NO
Fr, 20.07. 8:00 7 2 11 70° O
Fr, 20.07. 7:30 4 1 7 70° O
Ortszeit Untergrenze Bedeckung Gattung
total tief tief mittel hoch
Fr, 20.07. 8:00 6300 m 8/8 8/8 - - -
Fr, 20.07. 2:00 - 0/8 0/8 - - -
Do, 19.07. 20:00 10500 m 1/8 0/8 - - -
Do, 19.07. 14:00 - 0/8 0/8 - - -
Do, 19.07. 8:00 10500 m 2/8 0/8 - - -
Do, 19.07. 2:00 9000 m 8/8 0/8 - - -
Mi, 18.07. 20:00 - 0/8 0/8 - - -
Mi, 18.07. 14:00 1500 m 2/8 2/8 - - -
Ortszeit Bedeckungsgrad in Achtel und Wolkenuntergrenze
Fr, 20.07. 10:30 1(8400m) 5(10500m)
Fr, 20.07. 10:20 1(8400m) 5(10500m)
Fr, 20.07. 10:10 5(10500m)
Fr, 20.07. 10:00 2(10500m)
Fr, 20.07. 9:50 keine Wolken
Fr, 20.07. 9:40 keine Wolken
Fr, 20.07. 9:30 keine Wolken
Fr, 20.07. 9:00 keine Wolken
Fr, 20.07. 8:30 2(6300m)
Fr, 20.07. 8:00 8(6300m) 8(7200m) 8(7800m)
Fr, 20.07. 7:30 8(6600m) 8(7800m)
Ortszeit Luftdruck NN (hPa) Tendenz (hPa in 3 Std.)
Fr, 20.07. 8:00 1014 - 0,5
Fr, 20.07. 2:00 1016 - 0,1
Do, 19.07. 20:00 1014 - 0,9
Do, 19.07. 14:00 1016 - 0,8
Do, 19.07. 8:00 1018 + 0,2
Do, 19.07. 2:00 1018 + 0,6
Mi, 18.07. 20:00 1015 - 0,7
Mi, 18.07. 14:00 1017 - 0,7
Ortszeit Luftdruck NN (hPa) Tendenz (hPa in 3 Std.)
Fr, 20.07. 10:30 1014 - 0,4
Fr, 20.07. 10:20 1014 keine Meldung
Fr, 20.07. 10:10 1014 keine Meldung
Fr, 20.07. 10:00 1014 - 0,3
Fr, 20.07. 9:50 1014 keine Meldung
Fr, 20.07. 9:40 1014 keine Meldung
Fr, 20.07. 9:30 1014 - 0,2
Fr, 20.07. 9:00 1014 - 0,5
Fr, 20.07. 8:30 1014 - 0,5
Fr, 20.07. 8:00 1014 - 0,5
Fr, 20.07. 7:30 1015 - 0,3
Ortszeit Schneehöhe (cm)
Fr, 20.07. 8:00 -
Fr, 20.07. 2:00 -
Do, 19.07. 20:00 -
Do, 19.07. 14:00 -
Do, 19.07. 8:00 -
Do, 19.07. 2:00 -
Mi, 18.07. 20:00 -
Mi, 18.07. 14:00 -
Ortszeit Schneehöhe (cm)
Fr, 20.07. 10:30 -
Fr, 20.07. 10:20 -
Fr, 20.07. 10:10 -
Fr, 20.07. 10:00 -
Fr, 20.07. 9:50 -
Fr, 20.07. 9:40 -
Fr, 20.07. 9:30 -
Fr, 20.07. 9:00 -
Fr, 20.07. 8:30 -
Fr, 20.07. 8:00 -
Fr, 20.07. 7:30 -
Link zu dieser Seite / Seite empfehlen

Das Wetter in ...